sensor_id;sensor_type;location;lat;lon;timestamp;temperature;humidity
24560;DHT22;12727;49.934;8.656;2022-08-04T00:02:50;22.30;72.30
24560;DHT22;12727;49.934;8.656;2022-08-04T00:10:31;22.40;73.60
24560;DHT22;12727;49.934;8.656;2022-08-04T00:12:59;22.40;74.00
24560;DHT22;12727;49.934;8.656;2022-08-04T00:15:26;22.30;74.00
24560;DHT22;12727;49.934;8.656;2022-08-04T00:17:59;22.30;74.20
24560;DHT22;12727;49.934;8.656;2022-08-04T00:20:29;22.20;74.60
24560;DHT22;12727;49.934;8.656;2022-08-04T00:22:56;22.10;75.00
24560;DHT22;12727;49.934;8.656;2022-08-04T00:25:23;22.10;75.30
24560;DHT22;12727;49.934;8.656;2022-08-04T00:27:50;21.90;75.60
24560;DHT22;12727;49.934;8.656;2022-08-04T00:30:15;21.90;76.00
24560;DHT22;12727;49.934;8.656;2022-08-04T00:32:41;21.90;76.20
24560;DHT22;12727;49.934;8.656;2022-08-04T00:35:13;21.80;76.30
24560;DHT22;12727;49.934;8.656;2022-08-04T00:37:40;21.80;76.10
24560;DHT22;12727;49.934;8.656;2022-08-04T00:40:22;21.90;76.30
24560;DHT22;12727;49.934;8.656;2022-08-04T00:43:23;21.90;75.80
24560;DHT22;12727;49.934;8.656;2022-08-04T00:54:22;22.00;76.00
24560;DHT22;12727;49.934;8.656;2022-08-04T00:59:43;21.90;76.10
24560;DHT22;12727;49.934;8.656;2022-08-04T01:05:30;21.40;77.00
24560;DHT22;12727;49.934;8.656;2022-08-04T01:11:08;21.30;78.70
24560;DHT22;12727;49.934;8.656;2022-08-04T01:13:59;21.30;78.60
24560;DHT22;12727;49.934;8.656;2022-08-04T01:16:34;21.30;79.20
24560;DHT22;12727;49.934;8.656;2022-08-04T01:21:57;21.10;79.90
24560;DHT22;12727;49.934;8.656;2022-08-04T01:24:47;21.10;80.20
24560;DHT22;12727;49.934;8.656;2022-08-04T01:30:19;20.90;80.50
24560;DHT22;12727;49.934;8.656;2022-08-04T01:32:51;20.90;80.20
24560;DHT22;12727;49.934;8.656;2022-08-04T01:35:29;20.80;79.90
24560;DHT22;12727;49.934;8.656;2022-08-04T01:40:43;20.80;79.60
24560;DHT22;12727;49.934;8.656;2022-08-04T01:43:09;20.80;79.70
24560;DHT22;12727;49.934;8.656;2022-08-04T01:45:37;20.90;79.50
24560;DHT22;12727;49.934;8.656;2022-08-04T01:48:06;21.00;79.40
24560;DHT22;12727;49.934;8.656;2022-08-04T01:50:35;21.00;79.40
24560;DHT22;12727;49.934;8.656;2022-08-04T01:53:02;21.00;80.00
24560;DHT22;12727;49.934;8.656;2022-08-04T01:55:28;20.80;80.30
24560;DHT22;12727;49.934;8.656;2022-08-04T01:57:58;20.50;81.20
24560;DHT22;12727;49.934;8.656;2022-08-04T02:00:25;20.40;81.90
24560;DHT22;12727;49.934;8.656;2022-08-04T02:02:52;20.40;82.20
24560;DHT22;12727;49.934;8.656;2022-08-04T02:05:21;20.40;82.20
24560;DHT22;12727;49.934;8.656;2022-08-04T02:13:30;20.30;84.10
24560;DHT22;12727;49.934;8.656;2022-08-04T02:16:04;20.20;85.00
24560;DHT22;12727;49.934;8.656;2022-08-04T02:21:12;20.10;86.80
24560;DHT22;12727;49.934;8.656;2022-08-04T02:23:40;20.10;86.50
24560;DHT22;12727;49.934;8.656;2022-08-04T02:26:17;20.10;86.30
24560;DHT22;12727;49.934;8.656;2022-08-04T02:28:55;20.10;86.70
24560;DHT22;12727;49.934;8.656;2022-08-04T02:36:39;19.80;88.00
24560;DHT22;12727;49.934;8.656;2022-08-04T02:39:07;19.70;88.30
24560;DHT22;12727;49.934;8.656;2022-08-04T02:41:33;19.80;88.40
24560;DHT22;12727;49.934;8.656;2022-08-04T02:44:04;19.90;88.30
24560;DHT22;12727;49.934;8.656;2022-08-04T02:46:32;20.00;88.00
24560;DHT22;12727;49.934;8.656;2022-08-04T02:49:02;20.00;88.00
24560;DHT22;12727;49.934;8.656;2022-08-04T02:51:31;20.00;87.80
24560;DHT22;12727;49.934;8.656;2022-08-04T02:53:58;20.20;87.70
24560;DHT22;12727;49.934;8.656;2022-08-04T02:56:27;20.20;87.80
24560;DHT22;12727;49.934;8.656;2022-08-04T02:59:09;20.10;88.00
24560;DHT22;12727;49.934;8.656;2022-08-04T03:01:35;20.20;88.80
24560;DHT22;12727;49.934;8.656;2022-08-04T03:07:42;20.10;89.20
24560;DHT22;12727;49.934;8.656;2022-08-04T03:26:18;20.00;90.20
24560;DHT22;12727;49.934;8.656;2022-08-04T03:40:15;19.90;91.10
24560;DHT22;12727;49.934;8.656;2022-08-04T04:01:09;19.90;92.40
24560;DHT22;12727;49.934;8.656;2022-08-04T04:03:45;19.70;92.80
24560;DHT22;12727;49.934;8.656;2022-08-04T04:09:20;19.40;94.10
24560;DHT22;12727;49.934;8.656;2022-08-04T04:20:24;20.00;93.90
24560;DHT22;12727;49.934;8.656;2022-08-04T04:31:23;19.70;95.00
24560;DHT22;12727;49.934;8.656;2022-08-04T04:33:58;19.70;95.00
24560;DHT22;12727;49.934;8.656;2022-08-04T04:39:31;19.80;95.20
24560;DHT22;12727;49.934;8.656;2022-08-04T04:44:54;20.10;95.20
24560;DHT22;12727;49.934;8.656;2022-08-04T04:47:38;20.20;95.30
24560;DHT22;12727;49.934;8.656;2022-08-04T04:53:23;20.50;94.60
24560;DHT22;12727;49.934;8.656;2022-08-04T04:56:10;20.50;94.40
24560;DHT22;12727;49.934;8.656;2022-08-04T04:58:39;20.50;94.40
24560;DHT22;12727;49.934;8.656;2022-08-04T05:06:53;20.70;94.70
24560;DHT22;12727;49.934;8.656;2022-08-04T05:14:57;21.00;94.50
24560;DHT22;12727;49.934;8.656;2022-08-04T05:17:34;21.10;94.40
24560;DHT22;12727;49.934;8.656;2022-08-04T05:20:11;21.20;94.20
24560;DHT22;12727;49.934;8.656;2022-08-04T05:23:11;21.20;94.20
24560;DHT22;12727;49.934;8.656;2022-08-04T05:25:50;21.20;93.90
24560;DHT22;12727;49.934;8.656;2022-08-04T05:28:23;21.30;93.80
24560;DHT22;12727;49.934;8.656;2022-08-04T05:30:54;21.40;93.70
24560;DHT22;12727;49.934;8.656;2022-08-04T05:33:25;21.50;93.40
24560;DHT22;12727;49.934;8.656;2022-08-04T05:35:55;21.60;93.10
24560;DHT22;12727;49.934;8.656;2022-08-04T05:38:28;21.70;92.70
24560;DHT22;12727;49.934;8.656;2022-08-04T05:40:55;21.80;92.40
24560;DHT22;12727;49.934;8.656;2022-08-04T05:43:22;21.90;92.10
24560;DHT22;12727;49.934;8.656;2022-08-04T05:45:50;22.00;91.70
24560;DHT22;12727;49.934;8.656;2022-08-04T05:48:16;22.20;91.50
24560;DHT22;12727;49.934;8.656;2022-08-04T05:50:44;22.30;91.70
24560;DHT22;12727;49.934;8.656;2022-08-04T05:53:10;22.50;90.90
24560;DHT22;12727;49.934;8.656;2022-08-04T05:55:37;22.70;90.50
24560;DHT22;12727;49.934;8.656;2022-08-04T05:58:03;22.80;90.50
24560;DHT22;12727;49.934;8.656;2022-08-04T06:00:29;22.90;90.50
24560;DHT22;12727;49.934;8.656;2022-08-04T06:02:56;23.10;90.30
24560;DHT22;12727;49.934;8.656;2022-08-04T06:05:23;23.20;90.10
24560;DHT22;12727;49.934;8.656;2022-08-04T06:07:52;23.30;90.00
24560;DHT22;12727;49.934;8.656;2022-08-04T06:10:18;23.40;89.50
24560;DHT22;12727;49.934;8.656;2022-08-04T06:12:48;23.60;88.40
24560;DHT22;12727;49.934;8.656;2022-08-04T06:15:18;23.80;87.70
24560;DHT22;12727;49.934;8.656;2022-08-04T06:17:48;24.00;87.00
24560;DHT22;12727;49.934;8.656;2022-08-04T06:20:15;24.30;85.40
24560;DHT22;12727;49.934;8.656;2022-08-04T06:22:45;24.60;83.80
24560;DHT22;12727;49.934;8.656;2022-08-04T06:25:16;24.80;82.80
24560;DHT22;12727;49.934;8.656;2022-08-04T06:27:45;25.10;81.40
24560;DHT22;12727;49.934;8.656;2022-08-04T06:30:12;25.40;79.80
24560;DHT22;12727;49.934;8.656;2022-08-04T06:32:44;25.70;78.60
24560;DHT22;12727;49.934;8.656;2022-08-04T06:35:20;25.90;76.90
24560;DHT22;12727;49.934;8.656;2022-08-04T06:37:47;26.20;76.20
24560;DHT22;12727;49.934;8.656;2022-08-04T06:40:15;26.60;75.00
24560;DHT22;12727;49.934;8.656;2022-08-04T06:42:42;26.90;73.20
24560;DHT22;12727;49.934;8.656;2022-08-04T06:45:10;27.30;71.60
24560;DHT22;12727;49.934;8.656;2022-08-04T06:47:37;27.70;70.60
24560;DHT22;12727;49.934;8.656;2022-08-04T06:50:05;27.80;68.80
24560;DHT22;12727;49.934;8.656;2022-08-04T06:52:31;28.00;67.90
24560;DHT22;12727;49.934;8.656;2022-08-04T06:54:57;28.10;67.60
24560;DHT22;12727;49.934;8.656;2022-08-04T06:57:26;28.20;66.10
24560;DHT22;12727;49.934;8.656;2022-08-04T06:59:58;28.60;64.80
24560;DHT22;12727;49.934;8.656;2022-08-04T07:02:26;29.00;63.40
24560;DHT22;12727;49.934;8.656;2022-08-04T07:04:53;29.20;63.10
24560;DHT22;12727;49.934;8.656;2022-08-04T07:07:19;29.50;61.30
24560;DHT22;12727;49.934;8.656;2022-08-04T07:09:45;29.90;60.10
24560;DHT22;12727;49.934;8.656;2022-08-04T07:12:11;30.10;58.80
24560;DHT22;12727;49.934;8.656;2022-08-04T07:14:39;30.40;58.30
24560;DHT22;12727;49.934;8.656;2022-08-04T07:17:07;30.70;57.90
24560;DHT22;12727;49.934;8.656;2022-08-04T07:19:35;31.00;57.60
24560;DHT22;12727;49.934;8.656;2022-08-04T07:22:02;31.20;56.50
24560;DHT22;12727;49.934;8.656;2022-08-04T07:24:35;31.40;56.00
24560;DHT22;12727;49.934;8.656;2022-08-04T07:27:01;31.40;55.10
24560;DHT22;12727;49.934;8.656;2022-08-04T07:29:27;31.80;53.90
24560;DHT22;12727;49.934;8.656;2022-08-04T07:31:57;32.00;52.90
24560;DHT22;12727;49.934;8.656;2022-08-04T07:34:25;32.40;52.70
24560;DHT22;12727;49.934;8.656;2022-08-04T07:36:54;32.40;51.80
24560;DHT22;12727;49.934;8.656;2022-08-04T07:39:23;32.60;51.40
24560;DHT22;12727;49.934;8.656;2022-08-04T07:41:49;32.90;50.10
24560;DHT22;12727;49.934;8.656;2022-08-04T07:44:16;33.30;48.40
24560;DHT22;12727;49.934;8.656;2022-08-04T07:46:44;33.10;47.70
24560;DHT22;12727;49.934;8.656;2022-08-04T07:49:10;32.90;47.60
24560;DHT22;12727;49.934;8.656;2022-08-04T07:51:38;32.60;47.80
24560;DHT22;12727;49.934;8.656;2022-08-04T07:54:05;32.90;48.10
24560;DHT22;12727;49.934;8.656;2022-08-04T07:56:35;33.30;47.10
24560;DHT22;12727;49.934;8.656;2022-08-04T07:59:01;33.50;46.90
24560;DHT22;12727;49.934;8.656;2022-08-04T08:01:27;33.80;46.70
24560;DHT22;12727;49.934;8.656;2022-08-04T08:03:58;34.20;45.40
24560;DHT22;12727;49.934;8.656;2022-08-04T08:06:25;33.90;45.00
24560;DHT22;12727;49.934;8.656;2022-08-04T08:08:51;33.90;45.60
24560;DHT22;12727;49.934;8.656;2022-08-04T08:11:18;34.20;45.20
24560;DHT22;12727;49.934;8.656;2022-08-04T08:13:43;34.60;44.90
24560;DHT22;12727;49.934;8.656;2022-08-04T08:16:10;35.10;44.10
24560;DHT22;12727;49.934;8.656;2022-08-04T08:18:39;35.00;43.60
24560;DHT22;12727;49.934;8.656;2022-08-04T08:21:05;35.10;43.60
24560;DHT22;12727;49.934;8.656;2022-08-04T08:23:33;34.70;43.80
24560;DHT22;12727;49.934;8.656;2022-08-04T08:25:59;34.50;44.10
24560;DHT22;12727;49.934;8.656;2022-08-04T08:28:25;34.50;44.00
24560;DHT22;12727;49.934;8.656;2022-08-04T08:30:51;34.70;43.80
24560;DHT22;12727;49.934;8.656;2022-08-04T08:33:17;34.90;43.40
24560;DHT22;12727;49.934;8.656;2022-08-04T08:38:15;35.10;42.80
24560;DHT22;12727;49.934;8.656;2022-08-04T08:40:58;35.00;43.20
24560;DHT22;12727;49.934;8.656;2022-08-04T08:43:44;35.50;42.10
24560;DHT22;12727;49.934;8.656;2022-08-04T08:46:38;35.30;42.00
24560;DHT22;12727;49.934;8.656;2022-08-04T08:49:24;35.30;41.90
24560;DHT22;12727;49.934;8.656;2022-08-04T08:52:10;35.00;42.90
24560;DHT22;12727;49.934;8.656;2022-08-04T09:03:55;35.40;41.90
24560;DHT22;12727;49.934;8.656;2022-08-04T09:14:52;36.20;40.30
24560;DHT22;12727;49.934;8.656;2022-08-04T09:18:21;37.00;40.00
24560;DHT22;12727;49.934;8.656;2022-08-04T09:20:33;37.20;39.70
24560;DHT22;12727;49.934;8.656;2022-08-04T09:25:48;38.50;38.20
24560;DHT22;12727;49.934;8.656;2022-08-04T09:28:23;38.40;37.40
24560;DHT22;12727;49.934;8.656;2022-08-04T09:31:07;37.80;37.80
24560;DHT22;12727;49.934;8.656;2022-08-04T09:36:14;38.10;37.10
24560;DHT22;12727;49.934;8.656;2022-08-04T09:39:05;38.30;37.40
24560;DHT22;12727;49.934;8.656;2022-08-04T09:41:50;38.50;35.60
24560;DHT22;12727;49.934;8.656;2022-08-04T09:47:30;38.20;36.40
24560;DHT22;12727;49.934;8.656;2022-08-04T09:53:04;38.20;36.10
24560;DHT22;12727;49.934;8.656;2022-08-04T09:56:00;38.10;36.70
24560;DHT22;12727;49.934;8.656;2022-08-04T09:58:49;38.80;36.10
24560;DHT22;12727;49.934;8.656;2022-08-04T10:01:22;38.90;36.10
24560;DHT22;12727;49.934;8.656;2022-08-04T10:04:02;39.20;35.60
24560;DHT22;12727;49.934;8.656;2022-08-04T10:13:05;38.50;35.40
24560;DHT22;12727;49.934;8.656;2022-08-04T10:37:28;38.60;34.90
24560;DHT22;12727;49.934;8.656;2022-08-04T10:40:02;38.80;35.10
24560;DHT22;12727;49.934;8.656;2022-08-04T10:42:57;39.30;33.70
24560;DHT22;12727;49.934;8.656;2022-08-04T10:45:38;39.80;33.00
24560;DHT22;12727;49.934;8.656;2022-08-04T10:48:12;39.70;33.10
24560;DHT22;12727;49.934;8.656;2022-08-04T10:50:47;39.50;34.10
24560;DHT22;12727;49.934;8.656;2022-08-04T10:53:19;39.60;32.90
24560;DHT22;12727;49.934;8.656;2022-08-04T10:55:51;39.90;32.70
24560;DHT22;12727;49.934;8.656;2022-08-04T10:58:25;39.90;32.20
24560;DHT22;12727;49.934;8.656;2022-08-04T11:00:55;40.00;32.50
24560;DHT22;12727;49.934;8.656;2022-08-04T11:06:09;39.10;32.10
24560;DHT22;12727;49.934;8.656;2022-08-04T11:08:38;39.20;32.70
24560;DHT22;12727;49.934;8.656;2022-08-04T11:14:43;39.50;32.30
24560;DHT22;12727;49.934;8.656;2022-08-04T11:17:17;39.20;33.40
24560;DHT22;12727;49.934;8.656;2022-08-04T11:20:22;39.40;32.50
24560;DHT22;12727;49.934;8.656;2022-08-04T11:25:52;39.60;32.60
24560;DHT22;12727;49.934;8.656;2022-08-04T11:28:49;39.40;31.70
24560;DHT22;12727;49.934;8.656;2022-08-04T11:31:27;39.00;32.40
24560;DHT22;12727;49.934;8.656;2022-08-04T11:34:34;38.50;33.90
24560;DHT22;12727;49.934;8.656;2022-08-04T11:37:40;38.10;32.70
24560;DHT22;12727;49.934;8.656;2022-08-04T11:40:12;37.50;33.50
24560;DHT22;12727;49.934;8.656;2022-08-04T11:42:42;37.00;34.40
24560;DHT22;12727;49.934;8.656;2022-08-04T11:45:21;36.80;34.80
24560;DHT22;12727;49.934;8.656;2022-08-04T11:52:53;36.10;35.20
24560;DHT22;12727;49.934;8.656;2022-08-04T11:55:20;36.10;35.60
24560;DHT22;12727;49.934;8.656;2022-08-04T11:57:47;36.10;34.50
24560;DHT22;12727;49.934;8.656;2022-08-04T12:00:15;36.20;33.40
24560;DHT22;12727;49.934;8.656;2022-08-04T12:05:34;36.40;33.30
24560;DHT22;12727;49.934;8.656;2022-08-04T12:16:28;36.20;33.70
24560;DHT22;12727;49.934;8.656;2022-08-04T12:19:16;36.20;33.50
24560;DHT22;12727;49.934;8.656;2022-08-04T12:21:47;36.40;32.30
24560;DHT22;12727;49.934;8.656;2022-08-04T12:24:19;36.30;32.40
24560;DHT22;12727;49.934;8.656;2022-08-04T12:26:58;36.30;32.70
24560;DHT22;12727;49.934;8.656;2022-08-04T12:29:32;36.60;32.40
24560;DHT22;12727;49.934;8.656;2022-08-04T12:32:31;36.40;32.40
24560;DHT22;12727;49.934;8.656;2022-08-04T12:35:06;36.20;32.50
24560;DHT22;12727;49.934;8.656;2022-08-04T12:40:43;36.20;33.50
24560;DHT22;12727;49.934;8.656;2022-08-04T12:43:21;36.30;33.00
24560;DHT22;12727;49.934;8.656;2022-08-04T12:45:50;36.70;32.30
24560;DHT22;12727;49.934;8.656;2022-08-04T12:48:18;36.80;32.10
24560;DHT22;12727;49.934;8.656;2022-08-04T12:50:51;36.70;31.40
24560;DHT22;12727;49.934;8.656;2022-08-04T12:53:21;36.50;32.10
24560;DHT22;12727;49.934;8.656;2022-08-04T12:55:48;36.60;32.50
24560;DHT22;12727;49.934;8.656;2022-08-04T12:58:17;36.60;32.10
24560;DHT22;12727;49.934;8.656;2022-08-04T13:00:52;36.50;32.10
24560;DHT22;12727;49.934;8.656;2022-08-04T13:03:19;36.30;32.30
24560;DHT22;12727;49.934;8.656;2022-08-04T13:05:46;36.70;32.00
24560;DHT22;12727;49.934;8.656;2022-08-04T13:08:14;36.50;31.70
24560;DHT22;12727;49.934;8.656;2022-08-04T13:10:46;36.60;32.10
24560;DHT22;12727;49.934;8.656;2022-08-04T13:13:19;36.90;31.90
24560;DHT22;12727;49.934;8.656;2022-08-04T13:16:00;36.70;31.90
24560;DHT22;12727;49.934;8.656;2022-08-04T13:18:28;36.60;31.90
24560;DHT22;12727;49.934;8.656;2022-08-04T13:20:54;36.20;32.50
24560;DHT22;12727;49.934;8.656;2022-08-04T13:23:24;35.90;33.00
24560;DHT22;12727;49.934;8.656;2022-08-04T13:25:52;36.00;33.60
24560;DHT22;12727;49.934;8.656;2022-08-04T13:28:25;36.10;33.40
24560;DHT22;12727;49.934;8.656;2022-08-04T13:30:58;36.00;33.20
24560;DHT22;12727;49.934;8.656;2022-08-04T13:33:29;35.90;33.40
24560;DHT22;12727;49.934;8.656;2022-08-04T13:35:56;36.00;33.80
24560;DHT22;12727;49.934;8.656;2022-08-04T13:38:24;36.10;33.60
24560;DHT22;12727;49.934;8.656;2022-08-04T13:40:51;36.20;33.40
24560;DHT22;12727;49.934;8.656;2022-08-04T13:43:24;36.20;33.40
24560;DHT22;12727;49.934;8.656;2022-08-04T13:45:49;36.10;33.80
24560;DHT22;12727;49.934;8.656;2022-08-04T13:48:16;36.20;33.60
24560;DHT22;12727;49.934;8.656;2022-08-04T13:50:46;36.10;33.40
24560;DHT22;12727;49.934;8.656;2022-08-04T13:53:16;36.00;33.50
24560;DHT22;12727;49.934;8.656;2022-08-04T13:55:43;36.10;33.40
24560;DHT22;12727;49.934;8.656;2022-08-04T13:58:13;36.10;33.50
24560;DHT22;12727;49.934;8.656;2022-08-04T14:00:52;36.00;33.50
24560;DHT22;12727;49.934;8.656;2022-08-04T14:03:30;36.10;33.40
24560;DHT22;12727;49.934;8.656;2022-08-04T14:11:35;36.00;33.30
24560;DHT22;12727;49.934;8.656;2022-08-04T14:14:33;35.80;33.30
24560;DHT22;12727;49.934;8.656;2022-08-04T14:17:09;35.70;33.40
24560;DHT22;12727;49.934;8.656;2022-08-04T14:25:14;35.40;33.90
24560;DHT22;12727;49.934;8.656;2022-08-04T14:27:42;35.50;34.50
24560;DHT22;12727;49.934;8.656;2022-08-04T14:30:26;35.80;34.10
24560;DHT22;12727;49.934;8.656;2022-08-04T14:33:09;35.90;33.90
24560;DHT22;12727;49.934;8.656;2022-08-04T14:35:35;35.90;33.80
24560;DHT22;12727;49.934;8.656;2022-08-04T14:38:10;36.00;34.20
24560;DHT22;12727;49.934;8.656;2022-08-04T14:40:36;36.30;33.80
24560;DHT22;12727;49.934;8.656;2022-08-04T14:43:03;36.40;33.30
24560;DHT22;12727;49.934;8.656;2022-08-04T14:45:34;36.70;33.20
24560;DHT22;12727;49.934;8.656;2022-08-04T14:48:02;36.60;33.30
24560;DHT22;12727;49.934;8.656;2022-08-04T14:50:41;36.50;33.40
24560;DHT22;12727;49.934;8.656;2022-08-04T14:53:15;36.40;33.20
24560;DHT22;12727;49.934;8.656;2022-08-04T14:55:50;36.50;33.80
24560;DHT22;12727;49.934;8.656;2022-08-04T14:58:21;36.50;33.10
24560;DHT22;12727;49.934;8.656;2022-08-04T15:00:47;36.70;33.10
24560;DHT22;12727;49.934;8.656;2022-08-04T15:03:13;36.70;32.90
24560;DHT22;12727;49.934;8.656;2022-08-04T15:05:41;36.70;32.90
24560;DHT22;12727;49.934;8.656;2022-08-04T15:08:07;36.80;32.50
24560;DHT22;12727;49.934;8.656;2022-08-04T15:10:34;36.70;32.40
24560;DHT22;12727;49.934;8.656;2022-08-04T15:13:01;36.50;32.60
24560;DHT22;12727;49.934;8.656;2022-08-04T15:15:27;36.40;32.80
24560;DHT22;12727;49.934;8.656;2022-08-04T15:17:54;36.40;33.10
24560;DHT22;12727;49.934;8.656;2022-08-04T15:20:20;36.40;33.10
24560;DHT22;12727;49.934;8.656;2022-08-04T15:22:46;36.60;33.20
24560;DHT22;12727;49.934;8.656;2022-08-04T15:25:12;36.70;32.90
24560;DHT22;12727;49.934;8.656;2022-08-04T15:27:38;36.70;33.00
24560;DHT22;12727;49.934;8.656;2022-08-04T15:30:07;36.80;32.80
24560;DHT22;12727;49.934;8.656;2022-08-04T15:32:42;36.80;32.70
24560;DHT22;12727;49.934;8.656;2022-08-04T15:35:16;36.90;32.60
24560;DHT22;12727;49.934;8.656;2022-08-04T15:38:08;36.80;32.60
24560;DHT22;12727;49.934;8.656;2022-08-04T15:40:58;36.80;32.70
24560;DHT22;12727;49.934;8.656;2022-08-04T15:43:45;36.70;32.80
24560;DHT22;12727;49.934;8.656;2022-08-04T15:49:24;36.20;32.60
24560;DHT22;12727;49.934;8.656;2022-08-04T15:52:07;36.20;32.50
24560;DHT22;12727;49.934;8.656;2022-08-04T15:54:34;36.30;32.40
24560;DHT22;12727;49.934;8.656;2022-08-04T15:57:04;36.40;32.60
24560;DHT22;12727;49.934;8.656;2022-08-04T15:59:59;36.40;32.20
24560;DHT22;12727;49.934;8.656;2022-08-04T16:07:56;35.90;32.80
24560;DHT22;12727;49.934;8.656;2022-08-04T16:12:55;35.90;33.20
24560;DHT22;12727;49.934;8.656;2022-08-04T16:15:43;36.00;32.90
24560;DHT22;12727;49.934;8.656;2022-08-04T16:18:10;36.00;33.80
24560;DHT22;12727;49.934;8.656;2022-08-04T16:20:37;36.10;33.10
24560;DHT22;12727;49.934;8.656;2022-08-04T16:25:51;36.10;33.10
24560;DHT22;12727;49.934;8.656;2022-08-04T16:28:38;36.20;33.20
24560;DHT22;12727;49.934;8.656;2022-08-04T16:31:07;36.30;32.90
24560;DHT22;12727;49.934;8.656;2022-08-04T16:33:33;36.30;32.70
24560;DHT22;12727;49.934;8.656;2022-08-04T16:36:00;36.20;32.70
24560;DHT22;12727;49.934;8.656;2022-08-04T16:38:26;36.30;32.60
24560;DHT22;12727;49.934;8.656;2022-08-04T16:40:55;36.20;32.30
24560;DHT22;12727;49.934;8.656;2022-08-04T16:43:22;36.10;32.40
24560;DHT22;12727;49.934;8.656;2022-08-04T16:46:01;36.10;32.70
24560;DHT22;12727;49.934;8.656;2022-08-04T16:48:34;36.10;32.70
24560;DHT22;12727;49.934;8.656;2022-08-04T16:51:04;36.10;32.70
24560;DHT22;12727;49.934;8.656;2022-08-04T16:53:41;36.00;33.00
24560;DHT22;12727;49.934;8.656;2022-08-04T16:56:12;35.80;32.80
24560;DHT22;12727;49.934;8.656;2022-08-04T16:58:39;35.80;33.00
24560;DHT22;12727;49.934;8.656;2022-08-04T17:01:11;35.70;33.00
24560;DHT22;12727;49.934;8.656;2022-08-04T17:03:38;35.70;33.10
24560;DHT22;12727;49.934;8.656;2022-08-04T17:06:12;35.70;33.10
24560;DHT22;12727;49.934;8.656;2022-08-04T17:08:43;35.60;33.30
24560;DHT22;12727;49.934;8.656;2022-08-04T17:11:09;35.50;33.60
24560;DHT22;12727;49.934;8.656;2022-08-04T17:13:40;35.70;33.90
24560;DHT22;12727;49.934;8.656;2022-08-04T17:16:09;35.60;33.50
24560;DHT22;12727;49.934;8.656;2022-08-04T17:18:41;35.50;33.40
24560;DHT22;12727;49.934;8.656;2022-08-04T17:21:10;35.50;33.50
24560;DHT22;12727;49.934;8.656;2022-08-04T17:23:40;35.50;33.50
24560;DHT22;12727;49.934;8.656;2022-08-04T17:26:09;35.40;33.70
24560;DHT22;12727;49.934;8.656;2022-08-04T17:28:35;35.40;33.60
24560;DHT22;12727;49.934;8.656;2022-08-04T17:31:01;35.30;33.50
24560;DHT22;12727;49.934;8.656;2022-08-04T17:33:27;35.30;33.50
24560;DHT22;12727;49.934;8.656;2022-08-04T17:35:56;35.20;33.70
24560;DHT22;12727;49.934;8.656;2022-08-04T17:40:59;35.20;33.80
24560;DHT22;12727;49.934;8.656;2022-08-04T17:43:54;35.10;34.10
24560;DHT22;12727;49.934;8.656;2022-08-04T17:49:22;34.90;34.80
24560;DHT22;12727;49.934;8.656;2022-08-04T17:51:57;34.90;34.50
24560;DHT22;12727;49.934;8.656;2022-08-04T17:54:30;34.80;34.60
24560;DHT22;12727;49.934;8.656;2022-08-04T17:56:58;34.80;34.70
24560;DHT22;12727;49.934;8.656;2022-08-04T17:59:29;34.70;34.70
24560;DHT22;12727;49.934;8.656;2022-08-04T18:02:05;34.70;34.90
24560;DHT22;12727;49.934;8.656;2022-08-04T18:07:13;34.50;35.40
24560;DHT22;12727;49.934;8.656;2022-08-04T18:12:27;34.40;35.10
24560;DHT22;12727;49.934;8.656;2022-08-04T18:14:56;34.40;35.20
24560;DHT22;12727;49.934;8.656;2022-08-04T18:17:39;34.30;35.50
24560;DHT22;12727;49.934;8.656;2022-08-04T18:20:09;34.10;37.20
24560;DHT22;12727;49.934;8.656;2022-08-04T18:22:37;33.90;37.70
24560;DHT22;12727;49.934;8.656;2022-08-04T18:25:03;33.70;38.00
24560;DHT22;12727;49.934;8.656;2022-08-04T18:27:30;33.50;38.20
24560;DHT22;12727;49.934;8.656;2022-08-04T18:29:57;33.30;39.50
24560;DHT22;12727;49.934;8.656;2022-08-04T18:32:23;33.00;40.70
24560;DHT22;12727;49.934;8.656;2022-08-04T18:34:51;32.70;41.50
24560;DHT22;12727;49.934;8.656;2022-08-04T18:37:17;32.50;41.70
24560;DHT22;12727;49.934;8.656;2022-08-04T18:39:42;32.30;42.00
24560;DHT22;12727;49.934;8.656;2022-08-04T18:42:08;32.10;42.60
24560;DHT22;12727;49.934;8.656;2022-08-04T18:44:34;31.90;43.00
24560;DHT22;12727;49.934;8.656;2022-08-04T18:47:01;31.70;44.80
24560;DHT22;12727;49.934;8.656;2022-08-04T18:49:27;31.50;45.10
24560;DHT22;12727;49.934;8.656;2022-08-04T18:51:53;31.20;45.90
24560;DHT22;12727;49.934;8.656;2022-08-04T18:54:20;30.90;46.90
24560;DHT22;12727;49.934;8.656;2022-08-04T18:56:46;30.70;47.50
24560;DHT22;12727;49.934;8.656;2022-08-04T18:59:13;30.70;47.70
24560;DHT22;12727;49.934;8.656;2022-08-04T19:01:39;30.40;47.70
24560;DHT22;12727;49.934;8.656;2022-08-04T19:04:04;30.30;47.70
24560;DHT22;12727;49.934;8.656;2022-08-04T19:06:31;30.30;47.40
24560;DHT22;12727;49.934;8.656;2022-08-04T19:08:57;30.30;47.40
24560;DHT22;12727;49.934;8.656;2022-08-04T19:11:23;30.30;46.70
24560;DHT22;12727;49.934;8.656;2022-08-04T19:13:50;30.40;46.10
24560;DHT22;12727;49.934;8.656;2022-08-04T19:16:16;30.60;45.50
24560;DHT22;12727;49.934;8.656;2022-08-04T19:18:41;30.60;45.00
24560;DHT22;12727;49.934;8.656;2022-08-04T19:21:08;30.60;44.90
24560;DHT22;12727;49.934;8.656;2022-08-04T19:23:34;30.60;44.60
24560;DHT22;12727;49.934;8.656;2022-08-04T19:26:00;30.60;44.20
24560;DHT22;12727;49.934;8.656;2022-08-04T19:28:26;30.60;43.90
24560;DHT22;12727;49.934;8.656;2022-08-04T19:30:52;30.80;43.30
24560;DHT22;12727;49.934;8.656;2022-08-04T19:33:19;30.90;43.10
24560;DHT22;12727;49.934;8.656;2022-08-04T19:35:44;30.80;42.90
24560;DHT22;12727;49.934;8.656;2022-08-04T19:38:10;30.80;43.10
24560;DHT22;12727;49.934;8.656;2022-08-04T19:40:37;30.70;43.30
24560;DHT22;12727;49.934;8.656;2022-08-04T19:43:03;30.60;43.30
24560;DHT22;12727;49.934;8.656;2022-08-04T19:45:29;30.50;43.40
24560;DHT22;12727;49.934;8.656;2022-08-04T19:47:55;30.50;43.80
24560;DHT22;12727;49.934;8.656;2022-08-04T19:50:21;30.30;44.30
24560;DHT22;12727;49.934;8.656;2022-08-04T19:52:47;30.20;44.70
24560;DHT22;12727;49.934;8.656;2022-08-04T19:55:12;30.10;45.30
24560;DHT22;12727;49.934;8.656;2022-08-04T19:57:38;29.90;45.70
24560;DHT22;12727;49.934;8.656;2022-08-04T20:00:09;29.80;46.40
24560;DHT22;12727;49.934;8.656;2022-08-04T20:02:36;29.70;47.00
24560;DHT22;12727;49.934;8.656;2022-08-04T20:05:02;29.50;47.90
24560;DHT22;12727;49.934;8.656;2022-08-04T20:07:28;29.30;48.50
24560;DHT22;12727;49.934;8.656;2022-08-04T20:09:54;29.20;48.40
24560;DHT22;12727;49.934;8.656;2022-08-04T20:12:20;29.10;48.50
24560;DHT22;12727;49.934;8.656;2022-08-04T20:14:45;29.10;48.70
24560;DHT22;12727;49.934;8.656;2022-08-04T20:17:11;29.00;48.80